Pearl River, New York
Current Conditions -  °F | °C
As of 10:51 AM on Monday 26 Jan 2015 (Local Time) from KTEB Reporting Station
Light Snow Light Snow  
Wind Chill: 11°   Ceiling: 3600
Heat Index: 22°   Visibility: 5mi
Dew Point: 15°   Wind: 10mph
Humidity: 75%   Direction: 40°NE
Pressure: 29.99"   Gusts: 18mph
Location:  41.06°N, 74.02°W
Report Text: KTEB 261551Z 04009G16KT 5SM -SN BR FEW017 OVC036 M06/M09 A2999 RMK AO2 SLP156 P0000 T10561094 $
Loading
Personal Weather Stations






























Interactive Weather Map New forecast layout! Learn more

10-Day Weather Forecast

Advertisements
Track Severe Weather on mobile